createdAt,value
2023-02-19T00:01:40.476Z,2.87
2023-02-19T00:04:22.152Z,3.10
2023-02-19T00:06:53.751Z,2.60
2023-02-19T00:09:43.474Z,2.98
2023-02-19T00:12:13.564Z,2.92
2023-02-19T00:14:44.429Z,2.83
2023-02-19T00:17:13.565Z,2.58
2023-02-19T00:19:44.462Z,2.35
2023-02-19T00:22:13.786Z,2.52
2023-02-19T00:24:44.222Z,2.70
2023-02-19T00:27:13.492Z,2.45
2023-02-19T00:29:44.328Z,2.85
2023-02-19T00:32:15.730Z,2.33
2023-02-19T00:34:45.258Z,2.60
2023-02-19T00:37:14.925Z,2.50
2023-02-19T00:39:47.515Z,3.47
2023-02-19T00:42:16.558Z,2.52
2023-02-19T00:44:47.142Z,2.60
2023-02-19T00:47:16.300Z,2.95
2023-02-19T00:49:45.499Z,5.05
2023-02-19T00:52:14.111Z,5.30
2023-02-19T00:54:43.797Z,4.53
2023-02-19T00:57:12.713Z,5.35
2023-02-19T00:59:42.966Z,3.75
2023-02-19T01:02:13.232Z,3.62
2023-02-19T01:04:43.333Z,4.83
2023-02-19T01:07:11.924Z,3.00
2023-02-19T01:09:41.459Z,3.50
2023-02-19T01:12:10.407Z,3.35
2023-02-19T01:14:39.800Z,2.42
2023-02-19T01:17:10.259Z,2.25
2023-02-19T01:19:40.667Z,2.27
2023-02-19T01:22:09.671Z,2.42
2023-02-19T01:24:39.465Z,2.47
2023-02-19T01:27:08.323Z,2.30
2023-02-19T01:29:38.482Z,2.00
2023-02-19T01:32:08.863Z,2.50
2023-02-19T01:34:39.514Z,2.10
2023-02-19T01:37:10.240Z,2.33
2023-02-19T01:39:39.615Z,2.85
2023-02-19T01:42:16.784Z,2.25
2023-02-19T01:44:51.191Z,2.35
2023-02-19T01:47:21.320Z,2.55
2023-02-19T01:49:54.843Z,2.75
2023-02-19T01:52:32.602Z,2.45
2023-02-19T01:55:02.639Z,2.00
2023-02-19T01:57:36.198Z,3.00
2023-02-19T02:00:11.027Z,2.65
2023-02-19T02:02:46.034Z,3.00
2023-02-19T02:05:42.033Z,3.60
2023-02-19T02:08:30.443Z,3.25
2023-02-19T02:10:59.311Z,3.85
2023-02-19T02:13:33.577Z,3.47
2023-02-19T02:16:25.730Z,3.47
2023-02-19T02:19:34.561Z,3.15
2023-02-19T02:22:12.781Z,3.00
2023-02-19T02:24:48.127Z,2.87
2023-02-19T02:27:56.946Z,3.02
2023-02-19T02:30:57.257Z,3.00
2023-02-19T02:33:48.646Z,3.12
2023-02-19T02:36:37.204Z,2.85
2023-02-19T02:39:09.934Z,2.50
2023-02-19T02:41:44.398Z,2.98
2023-02-19T02:44:14.283Z,3.35
2023-02-19T02:46:43.925Z,3.00
2023-02-19T02:49:19.947Z,3.00
2023-02-19T02:51:52.162Z,3.30
2023-02-19T02:54:45.028Z,2.80
2023-02-19T02:57:16.449Z,3.17
2023-02-19T02:59:49.050Z,3.22
2023-02-19T03:02:31.214Z,3.33
2023-02-19T03:05:34.050Z,2.47
2023-02-19T03:08:12.134Z,3.00
2023-02-19T03:10:49.054Z,2.80
2023-02-19T03:13:47.380Z,3.20
2023-02-19T03:16:49.332Z,2.47
2023-02-19T03:19:19.297Z,2.70
2023-02-19T03:22:02.773Z,2.77
2023-02-19T03:24:53.274Z,2.67
2023-02-19T03:27:28.764Z,2.70
2023-02-19T03:29:59.068Z,2.27
2023-02-19T03:33:02.613Z,2.77
2023-02-19T03:35:32.947Z,2.52
2023-02-19T03:38:18.300Z,2.50
2023-02-19T03:41:07.468Z,2.87
2023-02-19T03:43:52.228Z,3.00
2023-02-19T03:46:31.831Z,3.55
2023-02-19T03:49:05.911Z,3.37
2023-02-19T03:51:46.912Z,2.87
2023-02-19T03:54:25.309Z,2.70
2023-02-19T03:57:04.615Z,3.05
2023-02-19T03:59:57.340Z,3.02
2023-02-19T04:02:38.863Z,3.25
2023-02-19T04:05:18.629Z,2.90
2023-02-19T04:07:50.867Z,2.62
2023-02-19T04:10:22.232Z,2.77
2023-02-19T04:13:01.730Z,3.40
2023-02-19T04:15:33.166Z,2.92
2023-02-19T04:18:07.754Z,2.83
2023-02-19T04:20:40.638Z,3.50
2023-02-19T04:23:09.395Z,3.60
2023-02-19T04:25:42.433Z,3.30
2023-02-19T04:28:11.149Z,3.15
2023-02-19T04:30:40.391Z,3.25
2023-02-19T04:33:09.104Z,3.50
2023-02-19T04:35:38.817Z,3.30
2023-02-19T04:38:08.759Z,3.52
2023-02-19T04:40:37.849Z,3.30
2023-02-19T04:43:06.770Z,3.15
2023-02-19T04:45:37.583Z,3.70
2023-02-19T04:48:06.534Z,3.40
2023-02-19T04:50:37.341Z,3.80
2023-02-19T04:53:07.554Z,3.10
2023-02-19T04:55:39.463Z,3.33
2023-02-19T04:58:09.030Z,3.47
2023-02-19T05:00:37.768Z,2.70
2023-02-19T05:03:08.163Z,3.22
2023-02-19T05:05:39.070Z,2.92
2023-02-19T05:08:09.199Z,3.08
2023-02-19T05:10:39.094Z,2.50
2023-02-19T05:13:10.414Z,2.95
2023-02-19T05:15:40.480Z,2.87
2023-02-19T05:18:09.337Z,2.85
2023-02-19T05:20:39.333Z,2.60
2023-02-19T05:23:08.031Z,2.83
2023-02-19T05:25:36.823Z,2.35
2023-02-19T05:28:17.989Z,2.58
2023-02-19T05:30:52.165Z,3.20
2023-02-19T05:33:24.128Z,3.12
2023-02-19T05:35:55.249Z,4.10
2023-02-19T05:38:24.292Z,3.60
2023-02-19T05:40:54.348Z,3.80
2023-02-19T05:43:25.539Z,3.52
2023-02-19T05:45:56.139Z,3.37
2023-02-19T05:48:25.918Z,3.10
2023-02-19T05:51:07.746Z,3.33
2023-02-19T05:53:38.232Z,3.77
2023-02-19T05:56:29.616Z,3.90
2023-02-19T05:58:58.654Z,3.27
2023-02-19T06:01:28.820Z,3.50
2023-02-19T06:03:57.961Z,3.60
2023-02-19T06:06:28.279Z,2.67
2023-02-19T06:08:57.426Z,2.83
2023-02-19T06:11:26.943Z,2.33
2023-02-19T06:13:55.888Z,3.40
2023-02-19T06:16:24.624Z,2.95
2023-02-19T06:18:54.913Z,3.52
2023-02-19T06:21:23.509Z,2.98
2023-02-19T06:23:52.250Z,3.33
2023-02-19T06:26:24.040Z,3.25
2023-02-19T06:28:53.391Z,3.27
2023-02-19T06:31:23.949Z,2.85
2023-02-19T06:33:52.539Z,2.60
2023-02-19T06:36:21.998Z,3.27
2023-02-19T06:38:50.511Z,5.33
2023-02-19T06:41:21.338Z,3.37
2023-02-19T06:43:50.075Z,3.45
2023-02-19T06:46:19.188Z,3.50
2023-02-19T06:48:48.319Z,4.83
2023-02-19T06:51:19.078Z,3.72
2023-02-19T06:53:47.826Z,3.62
2023-02-19T06:56:34.471Z,3.60
2023-02-19T06:59:07.309Z,4.10
2023-02-19T07:01:36.592Z,3.65
2023-02-19T07:04:05.304Z,3.65
2023-02-19T07:06:34.729Z,3.70
2023-02-19T07:09:05.784Z,3.40
2023-02-19T07:11:38.532Z,3.15
2023-02-19T07:14:08.728Z,3.40
2023-02-19T07:16:39.360Z,3.27
2023-02-19T07:19:09.439Z,2.92
2023-02-19T07:21:39.118Z,3.08
2023-02-19T07:24:09.612Z,3.60
2023-02-19T07:26:39.987Z,3.20
2023-02-19T07:29:09.780Z,2.98
2023-02-19T07:31:38.551Z,3.45
2023-02-19T07:34:07.994Z,4.25
2023-02-19T07:36:36.798Z,3.30
2023-02-19T07:39:05.708Z,3.15
2023-02-19T07:41:35.460Z,3.33
2023-02-19T07:44:05.583Z,3.10
2023-02-19T07:46:36.492Z,3.00
2023-02-19T07:49:06.864Z,3.12
2023-02-19T07:51:38.929Z,3.25
2023-02-19T07:54:09.289Z,4.80
2023-02-19T07:56:38.210Z,2.83
2023-02-19T07:59:06.816Z,2.85
2023-02-19T08:01:55.777Z,2.40
2023-02-19T08:04:24.546Z,2.40
2023-02-19T08:06:54.088Z,2.12
2023-02-19T08:09:23.020Z,2.60
2023-02-19T08:12:11.252Z,2.80
2023-02-19T08:14:41.499Z,2.40
2023-02-19T08:17:10.130Z,3.08
2023-02-19T08:19:39.830Z,2.90
2023-02-19T08:22:08.594Z,2.70
2023-02-19T08:24:39.603Z,2.60
2023-02-19T08:27:08.685Z,3.08
2023-02-19T08:29:37.823Z,2.65
2023-02-19T08:32:06.663Z,2.60
2023-02-19T08:34:36.743Z,2.40
2023-02-19T08:37:07.301Z,2.80
2023-02-19T08:39:35.929Z,2.47
2023-02-19T08:42:05.789Z,2.20
2023-02-19T08:44:35.129Z,2.77
2023-02-19T08:47:05.703Z,2.30
2023-02-19T08:49:36.348Z,2.62
2023-02-19T08:52:07.405Z,2.83
2023-02-19T08:54:37.636Z,2.20
2023-02-19T08:57:06.407Z,2.85
2023-02-19T08:59:37.184Z,2.70
2023-02-19T09:02:05.888Z,2.40
2023-02-19T09:04:37.012Z,2.72
2023-02-19T09:07:07.906Z,2.80
2023-02-19T09:09:41.289Z,2.98
2023-02-19T09:12:11.371Z,2.60
2023-02-19T09:14:41.586Z,2.40
2023-02-19T09:17:10.711Z,2.30
2023-02-19T09:19:39.787Z,2.30
2023-02-19T09:22:08.220Z,2.80
2023-02-19T09:24:37.657Z,2.37
2023-02-19T09:27:06.683Z,3.17
2023-02-19T09:29:38.584Z,2.60
2023-02-19T09:32:09.764Z,3.00
2023-02-19T09:34:39.586Z,2.40
2023-02-19T09:37:09.169Z,2.70
2023-02-19T09:39:39.294Z,3.45
2023-02-19T09:42:15.733Z,2.42
2023-02-19T09:44:49.965Z,2.23
2023-02-19T09:47:22.989Z,2.33
2023-02-19T09:49:58.532Z,2.15
2023-02-19T09:52:44.240Z,2.52
2023-02-19T09:55:36.643Z,2.35
2023-02-19T09:58:29.666Z,2.52
2023-02-19T10:01:00.150Z,2.60
2023-02-19T10:03:34.473Z,2.27
2023-02-19T10:06:23.588Z,2.40
2023-02-19T10:09:17.515Z,2.42
2023-02-19T10:11:48.319Z,3.52
2023-02-19T10:14:25.171Z,2.60
2023-02-19T10:16:55.414Z,2.80
2023-02-19T10:19:24.369Z,2.55
2023-02-19T10:21:53.043Z,2.40
2023-02-19T10:24:27.626Z,3.00
2023-02-19T10:26:56.573Z,3.83
2023-02-19T10:29:26.988Z,2.12
2023-02-19T10:32:20.897Z,3.08
2023-02-19T10:35:09.571Z,2.65
2023-02-19T10:37:49.260Z,2.90
2023-02-19T10:40:22.422Z,2.75
2023-02-19T10:42:55.050Z,4.85
2023-02-19T10:45:26.764Z,2.37
2023-02-19T10:47:55.993Z,2.25
2023-02-19T10:50:32.606Z,2.10
2023-02-19T10:53:01.958Z,2.30
2023-02-19T10:55:37.845Z,2.17
2023-02-19T10:58:26.928Z,2.35
2023-02-19T11:01:24.422Z,2.15
2023-02-19T11:03:55.753Z,2.15
2023-02-19T11:06:26.608Z,3.33
2023-02-19T11:08:58.816Z,3.08
2023-02-19T11:11:36.635Z,3.85
2023-02-19T11:14:22.954Z,2.70
2023-02-19T11:16:57.282Z,2.45
2023-02-19T11:19:38.878Z,5.62
2023-02-19T11:22:38.090Z,2.85
2023-02-19T11:25:17.644Z,2.00
2023-02-19T11:28:24.110Z,2.00
2023-02-19T11:30:54.443Z,1.85
2023-02-19T11:33:27.102Z,2.05
2023-02-19T11:36:20.210Z,2.02
2023-02-19T11:38:48.730Z,2.77
2023-02-19T11:41:50.688Z,1.80
2023-02-19T11:44:54.885Z,1.82
2023-02-19T11:47:48.361Z,1.70
2023-02-19T11:50:31.641Z,3.50
2023-02-19T11:53:33.519Z,2.00
2023-02-19T11:56:17.081Z,2.55
2023-02-19T11:59:13.504Z,1.60
2023-02-19T12:02:08.714Z,2.25
2023-02-19T12:05:18.871Z,1.80
2023-02-19T12:08:24.898Z,1.65
2023-02-19T12:11:05.474Z,2.47
2023-02-19T12:14:15.667Z,2.30
2023-02-19T12:17:15.138Z,2.27
2023-02-19T12:20:01.037Z,2.60
2023-02-19T12:22:33.374Z,1.80
2023-02-19T12:25:13.175Z,1.90
2023-02-19T12:28:38.032Z,2.50
2023-02-19T12:31:46.014Z,2.15
2023-02-19T12:34:39.413Z,2.00
2023-02-19T12:37:22.907Z,2.22
2023-02-19T12:40:02.886Z,2.10
2023-02-19T12:43:08.161Z,1.50
2023-02-19T12:46:06.017Z,2.15
2023-02-19T12:48:55.975Z,2.10
2023-02-19T12:51:44.696Z,2.25
2023-02-19T12:54:41.238Z,1.98
2023-02-19T12:57:26.006Z,2.10
2023-02-19T13:00:05.239Z,1.90
2023-02-19T13:02:47.383Z,1.95
2023-02-19T13:05:24.861Z,1.90
2023-02-19T13:08:14.992Z,1.92
2023-02-19T13:10:51.792Z,1.85
2023-02-19T13:13:38.166Z,2.12
2023-02-19T13:16:09.929Z,1.65
2023-02-19T13:18:52.590Z,1.90
2023-02-19T13:21:40.623Z,1.70
2023-02-19T13:24:25.717Z,1.70
2023-02-19T13:27:35.094Z,2.05
2023-02-19T13:30:45.746Z,2.10
2023-02-19T13:33:22.477Z,1.92
2023-02-19T13:36:14.277Z,1.95
2023-02-19T13:38:46.244Z,1.77
2023-02-19T13:41:34.116Z,2.33
2023-02-19T13:44:04.755Z,2.08
2023-02-19T13:46:39.957Z,1.82
2023-02-19T13:49:33.588Z,2.20
2023-02-19T13:52:33.510Z,1.70
2023-02-19T13:55:49.759Z,2.10
2023-02-19T13:58:42.121Z,2.27
2023-02-19T14:01:11.385Z,2.65
2023-02-19T14:03:54.717Z,2.70
2023-02-19T14:06:25.742Z,2.30
2023-02-19T14:08:58.169Z,2.90
2023-02-19T14:11:49.184Z,2.72
2023-02-19T14:14:35.927Z,2.30
2023-02-19T14:17:24.953Z,2.35
2023-02-19T14:20:18.909Z,2.12
2023-02-19T14:22:54.667Z,2.15
2023-02-19T14:25:45.188Z,2.50
2023-02-19T14:28:19.214Z,2.17
2023-02-19T14:31:02.598Z,2.58
2023-02-19T14:33:34.555Z,2.45
2023-02-19T14:36:28.918Z,2.75
2023-02-19T14:39:00.157Z,3.08
2023-02-19T14:41:29.843Z,3.10
2023-02-19T14:43:58.607Z,2.72
2023-02-19T14:46:35.261Z,2.67
2023-02-19T14:49:28.058Z,2.08
2023-02-19T14:52:03.190Z,2.87
2023-02-19T14:54:45.292Z,2.70
2023-02-19T14:57:23.589Z,2.12
2023-02-19T14:59:59.138Z,3.05
2023-02-19T15:02:29.020Z,2.42
2023-02-19T15:04:58.698Z,3.00
2023-02-19T15:07:32.004Z,2.72
2023-02-19T15:10:05.176Z,4.10
2023-02-19T15:12:51.754Z,2.80
2023-02-19T15:15:29.182Z,2.92
2023-02-19T15:17:58.981Z,3.00
2023-02-19T15:20:33.673Z,3.45
2023-02-19T15:23:03.057Z,3.00
2023-02-19T15:25:38.299Z,3.05
2023-02-19T15:28:29.507Z,2.90
2023-02-19T15:31:05.967Z,3.20
2023-02-19T15:36:08.713Z,3.42
2023-02-19T15:38:38.911Z,3.30
2023-02-19T15:41:10.134Z,3.42
2023-02-19T15:43:50.412Z,3.02
2023-02-19T15:46:21.164Z,2.75
2023-02-19T15:48:58.350Z,3.40
2023-02-19T15:51:40.187Z,2.87
2023-02-19T15:54:31.912Z,3.00
2023-02-19T15:57:05.561Z,3.00
2023-02-19T15:59:46.410Z,3.00
2023-02-19T16:02:15.495Z,3.37
2023-02-19T16:04:45.033Z,4.17
2023-02-19T16:07:33.155Z,3.52
2023-02-19T16:10:21.295Z,3.77
2023-02-19T16:13:01.312Z,3.27
2023-02-19T16:15:31.618Z,3.20
2023-02-19T16:18:00.529Z,4.15
2023-02-19T16:20:34.614Z,3.83
2023-02-19T16:23:11.586Z,4.03
2023-02-19T16:25:44.287Z,3.22
2023-02-19T16:28:24.483Z,3.12
2023-02-19T16:31:08.845Z,3.72
2023-02-19T16:33:48.656Z,3.35
2023-02-19T16:36:40.139Z,3.50
2023-02-19T16:39:14.245Z,2.92
2023-02-19T16:41:55.256Z,3.05
2023-02-19T16:44:35.160Z,3.45
2023-02-19T16:47:14.214Z,3.15
2023-02-19T16:49:43.887Z,3.40
2023-02-19T16:52:16.622Z,3.72
2023-02-19T16:54:45.449Z,3.25
2023-02-19T16:57:14.255Z,3.30
2023-02-19T16:59:43.844Z,3.98
2023-02-19T17:02:19.464Z,3.65
2023-02-19T17:04:49.180Z,3.92
2023-02-19T17:07:18.875Z,4.40
2023-02-19T17:09:47.297Z,3.80
2023-02-19T17:12:17.634Z,4.37
2023-02-19T17:14:47.864Z,4.42
2023-02-19T17:17:17.242Z,4.08
2023-02-19T17:19:46.754Z,4.08
2023-02-19T17:22:17.014Z,3.70
2023-02-19T17:24:47.932Z,4.10
2023-02-19T17:27:18.440Z,3.50
2023-02-19T17:29:48.809Z,3.50
2023-02-19T17:32:20.184Z,3.22
2023-02-19T17:34:49.436Z,3.50
2023-02-19T17:37:19.176Z,3.80
2023-02-19T17:39:49.839Z,4.03
2023-02-19T17:42:19.640Z,3.87
2023-02-19T17:44:50.221Z,4.08
2023-02-19T17:47:20.992Z,4.35
2023-02-19T17:49:49.639Z,4.50
2023-02-19T17:52:19.231Z,4.30
2023-02-19T17:54:48.111Z,3.90
2023-02-19T17:57:18.518Z,3.40
2023-02-19T17:59:47.474Z,4.12
2023-02-19T18:02:17.213Z,3.80
2023-02-19T18:04:46.282Z,3.85
2023-02-19T18:07:15.014Z,3.17
2023-02-19T18:09:43.648Z,3.30
2023-02-19T18:12:12.249Z,4.75
2023-02-19T18:14:41.832Z,3.10
2023-02-19T18:17:11.745Z,3.98
2023-02-19T18:19:44.864Z,3.55
2023-02-19T18:22:13.522Z,3.40
2023-02-19T18:24:50.285Z,3.40
2023-02-19T18:27:20.023Z,3.62
2023-02-19T18:29:51.876Z,3.45
2023-02-19T18:32:21.420Z,3.90
2023-02-19T18:34:56.090Z,4.28
2023-02-19T18:37:25.349Z,4.90
2023-02-19T18:39:54.344Z,5.30
2023-02-19T18:42:23.837Z,6.28
2023-02-19T18:44:52.776Z,5.17
2023-02-19T18:47:25.082Z,4.50
2023-02-19T18:49:55.756Z,4.87
2023-02-19T18:52:24.810Z,4.78
2023-02-19T18:54:54.912Z,4.37
2023-02-19T18:57:24.801Z,3.77
2023-02-19T18:59:54.923Z,3.40
2023-02-19T19:02:24.036Z,2.85
2023-02-19T19:04:54.084Z,3.83
2023-02-19T19:07:22.811Z,4.08
2023-02-19T19:09:54.335Z,3.60
2023-02-19T19:12:23.730Z,2.42
2023-02-19T19:14:53.061Z,2.45
2023-02-19T19:17:21.772Z,2.75
2023-02-19T19:19:50.841Z,2.52
2023-02-19T19:22:21.630Z,2.42
2023-02-19T19:24:50.361Z,2.42
2023-02-19T19:27:21.424Z,3.05
2023-02-19T19:29:50.420Z,2.00
2023-02-19T19:32:19.252Z,2.47
2023-02-19T19:34:48.145Z,2.60
2023-02-19T19:37:16.722Z,3.08
2023-02-19T19:39:45.778Z,3.67
2023-02-19T19:42:15.804Z,3.08
2023-02-19T19:44:45.218Z,3.67
2023-02-19T19:47:14.459Z,3.62
2023-02-19T19:49:47.050Z,3.65
2023-02-19T19:52:16.418Z,4.03
2023-02-19T19:54:45.379Z,4.35
2023-02-19T19:57:15.807Z,4.17
2023-02-19T19:59:46.493Z,4.08
2023-02-19T20:02:16.462Z,4.72
2023-02-19T20:04:47.985Z,3.58
2023-02-19T20:07:16.714Z,3.47
2023-02-19T20:09:50.370Z,3.33
2023-02-19T20:12:20.222Z,3.22
2023-02-19T20:14:49.036Z,3.98
2023-02-19T20:17:18.945Z,3.75
2023-02-19T20:19:48.456Z,2.80
2023-02-19T20:22:19.197Z,3.52
2023-02-19T20:24:52.903Z,3.65
2023-02-19T20:27:22.843Z,4.03
2023-02-19T20:29:53.550Z,3.37
2023-02-19T20:32:22.751Z,2.90
2023-02-19T20:34:52.981Z,2.90
2023-02-19T20:37:23.566Z,2.58
2023-02-19T20:39:55.460Z,2.92
2023-02-19T20:42:25.390Z,3.00
2023-02-19T20:44:55.903Z,2.42
2023-02-19T20:47:25.591Z,2.67
2023-02-19T20:49:54.806Z,2.75
2023-02-19T20:52:26.415Z,2.00
2023-02-19T20:54:57.248Z,1.98
2023-02-19T20:57:27.126Z,2.00
2023-02-19T20:59:55.892Z,2.50
2023-02-19T21:02:28.395Z,3.05
2023-02-19T21:04:57.072Z,2.85
2023-02-19T21:07:25.942Z,2.17
2023-02-19T21:09:55.045Z,2.70
2023-02-19T21:12:24.612Z,2.60
2023-02-19T21:14:53.503Z,2.67
2023-02-19T21:17:22.521Z,2.35
2023-02-19T21:19:52.609Z,2.00
2023-02-19T21:22:22.412Z,2.25
2023-02-19T21:24:53.480Z,2.15
2023-02-19T21:27:22.266Z,2.10
2023-02-19T21:29:51.795Z,2.00
2023-02-19T21:32:22.236Z,1.62
2023-02-19T21:34:51.781Z,1.57
2023-02-19T21:37:20.825Z,1.67
2023-02-19T21:39:51.611Z,1.80
2023-02-19T21:42:22.135Z,1.85
2023-02-19T21:44:50.782Z,1.77
2023-02-19T21:47:19.522Z,1.67
2023-02-19T21:49:48.098Z,1.85
2023-02-19T21:52:17.079Z,1.72
2023-02-19T21:54:46.589Z,2.27
2023-02-19T21:57:15.184Z,2.00
2023-02-19T21:59:44.671Z,2.70
2023-02-19T22:02:14.854Z,2.25
2023-02-19T22:04:44.952Z,1.77
2023-02-19T22:07:13.655Z,1.50
2023-02-19T22:09:42.775Z,1.60
2023-02-19T22:12:11.504Z,2.00
2023-02-19T22:14:41.793Z,1.55
2023-02-19T22:17:10.941Z,1.70
2023-02-19T22:19:39.602Z,1.45
2023-02-19T22:22:10.547Z,1.60
2023-02-19T22:24:40.822Z,1.22
2023-02-19T22:27:10.111Z,1.20
2023-02-19T22:29:38.801Z,1.30
2023-02-19T22:32:09.568Z,1.62
2023-02-19T22:34:40.437Z,1.70
2023-02-19T22:37:10.968Z,1.60
2023-02-19T22:39:41.179Z,1.30
2023-02-19T22:42:11.036Z,1.87
2023-02-19T22:44:44.760Z,1.47
2023-02-19T22:47:14.693Z,1.40
2023-02-19T22:49:43.994Z,1.50
2023-02-19T22:52:13.218Z,1.40
2023-02-19T22:54:42.642Z,1.30
2023-02-19T22:57:11.190Z,1.45
2023-02-19T22:59:39.809Z,2.33
2023-02-19T23:02:08.656Z,1.27
2023-02-19T23:04:38.064Z,1.27
2023-02-19T23:07:07.325Z,1.32
2023-02-19T23:09:36.361Z,1.25
2023-02-19T23:12:09.288Z,1.80
2023-02-19T23:14:38.661Z,1.52
2023-02-19T23:17:07.806Z,1.27
2023-02-19T23:19:38.093Z,1.57
2023-02-19T23:22:07.017Z,1.10
2023-02-19T23:24:37.265Z,1.22
2023-02-19T23:27:06.377Z,1.37
2023-02-19T23:29:35.150Z,1.30
2023-02-19T23:32:05.198Z,1.37
2023-02-19T23:34:34.024Z,1.50
2023-02-19T23:37:02.768Z,1.30
2023-02-19T23:39:32.544Z,1.35
2023-02-19T23:42:03.873Z,1.27
2023-02-19T23:44:33.039Z,1.77
2023-02-19T23:47:03.047Z,1.52
2023-02-19T23:49:33.133Z,1.32
2023-02-19T23:52:03.641Z,1.27
2023-02-19T23:54:32.744Z,1.30
2023-02-19T23:57:02.671Z,1.60
2023-02-19T23:59:31.912Z,1.82
